createdAt,value
2023-02-23T00:04:39.981Z,1006.51
2023-02-23T00:11:02.979Z,1006.51
2023-02-23T00:17:23.004Z,1006.49
2023-02-23T00:23:45.996Z,1006.47
2023-02-23T00:30:05.983Z,1006.47
2023-02-23T00:36:31.712Z,1006.45
2023-02-23T00:42:51.986Z,1006.41
2023-02-23T00:49:15.025Z,1006.37
2023-02-23T00:55:35.025Z,1006.33
2023-02-23T01:01:57.996Z,1006.33
2023-02-23T01:08:17.999Z,1006.33
2023-02-23T01:14:41.014Z,1006.31
2023-02-23T01:21:01.026Z,1006.29
2023-02-23T01:27:23.985Z,1006.27
2023-02-23T01:33:44.020Z,1006.29
2023-02-23T01:40:06.976Z,1006.25
2023-02-23T01:46:27.070Z,1006.25
2023-02-23T01:52:50.014Z,1006.23
2023-02-23T01:59:09.994Z,1006.21
2023-02-23T02:05:32.990Z,1006.16
2023-02-23T02:11:53.053Z,1006.1
2023-02-23T02:18:15.975Z,1006.06
2023-02-23T02:24:36.028Z,1006.04
2023-02-23T02:30:59.041Z,1006.04
2023-02-23T02:37:18.990Z,1006
2023-02-23T02:43:41.973Z,1005.96
2023-02-23T02:50:02.026Z,1005.94
2023-02-23T02:56:25.017Z,1005.9
2023-02-23T03:02:45.023Z,1005.88
2023-02-23T03:09:08.013Z,1005.88
2023-02-23T03:15:27.985Z,1005.86
2023-02-23T03:21:51.008Z,1005.86
2023-02-23T03:28:11.003Z,1005.88
2023-02-23T03:34:33.990Z,1005.92
2023-02-23T03:40:54.013Z,1005.94
2023-02-23T03:47:17.078Z,1005.94
2023-02-23T03:53:36.985Z,1006
2023-02-23T03:59:59.981Z,1006
2023-02-23T04:06:20.007Z,1006
2023-02-23T04:12:43.001Z,1006
2023-02-23T04:19:03.009Z,1006.02
2023-02-23T04:25:26.039Z,1006.06
2023-02-23T04:47:35.994Z,1006.16
2023-02-23T04:53:58.991Z,1006.23
2023-02-23T05:00:18.989Z,1006.23
2023-02-23T05:06:42.033Z,1006.25
2023-02-23T05:13:01.986Z,1006.29
2023-02-23T05:19:24.996Z,1006.29
2023-02-23T05:25:45.009Z,1006.33
2023-02-23T05:32:08.200Z,1006.39
2023-02-23T05:38:28.021Z,1006.47
2023-02-23T05:44:51.031Z,1006.53
2023-02-23T05:51:10.984Z,1006.53
2023-02-23T05:57:33.993Z,1006.57
2023-02-23T06:03:54.080Z,1006.63
2023-02-23T06:10:17.017Z,1006.59
2023-02-23T06:16:37.141Z,1006.65
2023-02-23T06:23:00.043Z,1006.7
2023-02-23T06:29:20.001Z,1006.76
2023-02-23T06:35:42.986Z,1006.8
2023-02-23T06:42:03.185Z,1006.82
2023-02-23T06:48:26.004Z,1006.88
2023-02-23T06:54:46.014Z,1006.96
2023-02-23T07:01:09.072Z,1007.06
2023-02-23T07:07:29.033Z,1007.15
2023-02-23T07:13:52.016Z,1007.27
2023-02-23T07:20:12.112Z,1007.33
2023-02-23T07:26:35.026Z,1007.43
2023-02-23T07:32:54.990Z,1007.51
2023-02-23T07:39:18.057Z,1007.56
2023-02-23T07:45:38.063Z,1007.58
2023-02-23T07:52:01.019Z,1007.6
2023-02-23T07:58:21.147Z,1007.62
2023-02-23T08:04:43.988Z,1007.62
2023-02-23T08:11:04.007Z,1007.68
2023-02-23T08:17:27.008Z,1007.74
2023-02-23T08:23:46.999Z,1007.78
2023-02-23T08:30:10.007Z,1007.9
2023-02-23T08:36:30.029Z,1007.94
2023-02-23T08:42:53.033Z,1007.96
2023-02-23T08:49:12.995Z,1007.96
2023-02-23T08:55:36.026Z,1007.98
2023-02-23T09:01:55.981Z,1008.08
2023-02-23T09:08:18.985Z,1008.08
2023-02-23T09:14:39.026Z,1008.16
2023-02-23T09:21:02.008Z,1008.2
2023-02-23T09:27:21.992Z,1008.26
2023-02-23T09:33:45.129Z,1008.3
2023-02-23T09:40:04.990Z,1008.36
2023-02-23T10:02:55.030Z,1008.49
2023-02-23T10:09:18.001Z,1008.55
2023-02-23T10:15:38.139Z,1008.57
2023-02-23T10:22:01.029Z,1008.63
2023-02-23T10:28:20.978Z,1008.63
2023-02-23T10:34:43.994Z,1008.67
2023-02-23T10:41:04.059Z,1008.69
2023-02-23T10:47:27.603Z,1008.71
2023-02-23T10:53:47.001Z,1008.73
2023-02-23T11:00:10.008Z,1008.79
2023-02-23T11:06:29.987Z,1008.79
2023-02-23T11:12:52.986Z,1008.81
2023-02-23T11:19:13.028Z,1008.77
2023-02-23T11:25:35.993Z,1008.77
2023-02-23T11:31:56.158Z,1008.71
2023-02-23T11:38:19.020Z,1008.71
2023-02-23T11:44:38.978Z,1008.71
2023-02-23T11:51:01.997Z,1008.63
2023-02-23T11:57:22.017Z,1008.61
2023-02-23T12:03:44.988Z,1008.59
2023-02-23T12:10:04.985Z,1008.57
2023-02-23T12:16:28.129Z,1008.55
2023-02-23T12:22:48.014Z,1008.55
2023-02-23T12:29:10.996Z,1008.55
2023-02-23T12:35:31.341Z,1008.53
2023-02-23T12:41:53.981Z,1008.51
2023-02-23T12:48:13.977Z,1008.47
2023-02-23T12:54:37.028Z,1008.45
2023-02-23T13:00:56.996Z,1008.47
2023-02-23T13:07:20.102Z,1008.49
2023-02-23T13:13:40.035Z,1008.51
2023-02-23T13:20:02.987Z,1008.45
2023-02-23T13:26:23.022Z,1008.45
2023-02-23T13:32:46.107Z,1008.43
2023-02-23T13:39:17.752Z,1008.49
2023-02-23T13:45:29.025Z,1008.53
2023-02-23T13:51:49.027Z,1008.59
2023-02-23T13:58:12.024Z,1008.65
2023-02-23T14:04:31.988Z,1008.69
2023-02-23T14:10:55.147Z,1008.69
2023-02-23T14:17:14.992Z,1008.75
2023-02-23T14:23:37.996Z,1008.81
2023-02-23T14:29:58.032Z,1008.81
2023-02-23T14:36:20.991Z,1008.83
2023-02-23T14:42:41.014Z,1008.83
2023-02-23T14:49:04.042Z,1008.81
2023-02-23T14:55:23.984Z,1008.83
2023-02-23T15:01:47.050Z,1008.84
2023-02-23T15:23:39.170Z,1009
2023-02-23T15:30:01.990Z,1009.02
2023-02-23T15:36:22.022Z,1009.02
2023-02-23T15:42:45.015Z,1009.06
2023-02-23T15:49:05.008Z,1009.04
2023-02-23T15:55:28.006Z,1009.06
2023-02-23T16:01:48.002Z,1009.04
2023-02-23T16:08:10.995Z,1009.04
2023-02-23T16:14:30.998Z,1009.06
2023-02-23T16:20:54.408Z,1009.08
2023-02-23T16:27:14.010Z,1009.1
2023-02-23T16:33:36.996Z,1009.1
2023-02-23T16:39:57.018Z,1009.06
2023-02-23T16:46:20.518Z,1009.04
2023-02-23T16:52:40.001Z,1009.06
2023-02-23T16:59:03.027Z,1009.06
2023-02-23T17:05:23.002Z,1009.04
2023-02-23T17:11:46.038Z,1009.06
2023-02-23T17:18:06.015Z,1009.1
2023-02-23T17:24:28.995Z,1009.12
2023-02-23T17:30:49.117Z,1009.1
2023-02-23T17:37:12.002Z,1009.1
2023-02-23T17:43:31.973Z,1009.16
2023-02-23T17:49:54.990Z,1009.16
2023-02-23T17:56:15.007Z,1009.18
2023-02-23T18:02:37.984Z,1009.2
2023-02-23T18:08:57.985Z,1009.24
2023-02-23T18:15:21.029Z,1009.26
2023-02-23T18:21:41.000Z,1009.33
2023-02-23T18:28:04.008Z,1009.31
2023-02-23T18:34:24.061Z,1009.33
2023-02-23T18:40:47.016Z,1009.33
2023-02-23T18:47:06.988Z,1009.39
2023-02-23T18:53:30.023Z,1009.39
2023-02-23T18:59:50.000Z,1009.37
2023-02-23T19:06:12.984Z,1009.37
2023-02-23T19:12:33.018Z,1009.39
2023-02-23T19:18:55.995Z,1009.41
2023-02-23T19:25:15.982Z,1009.43
2023-02-23T19:31:39.201Z,1009.37
2023-02-23T19:37:59.010Z,1009.33
2023-02-23T19:44:21.980Z,1009.31
2023-02-23T19:50:42.030Z,1009.31
2023-02-23T19:57:04.993Z,1009.37
2023-02-23T20:03:24.969Z,1009.41
2023-02-23T20:09:48.075Z,1009.41
2023-02-23T20:16:07.992Z,1009.45
2023-02-23T20:22:30.997Z,1009.49
2023-02-23T20:44:23.008Z,1009.53
2023-02-23T20:50:45.971Z,1009.53
2023-02-23T20:57:06.000Z,1009.55
2023-02-23T21:03:29.023Z,1009.53
2023-02-23T21:09:49.003Z,1009.53
2023-02-23T21:16:12.053Z,1009.55
2023-02-23T21:22:32.048Z,1009.53
2023-02-23T21:28:55.008Z,1009.53
2023-02-23T21:35:14.992Z,1009.49
2023-02-23T21:41:38.003Z,1009.47
2023-02-23T21:47:57.996Z,1009.45
2023-02-23T21:54:20.997Z,1009.41
2023-02-23T22:00:41.022Z,1009.37
2023-02-23T22:07:03.990Z,1009.31
2023-02-23T22:13:24.003Z,1009.26
2023-02-23T22:19:47.011Z,1009.22
2023-02-23T22:26:06.993Z,1009.26
2023-02-23T22:32:30.264Z,1009.28
2023-02-23T22:38:50.009Z,1009.22
2023-02-23T22:45:13.022Z,1009.2
2023-02-23T22:51:32.997Z,1009.1
2023-02-23T22:57:56.033Z,1009.1
2023-02-23T23:20:52.992Z,1008.79
2023-02-23T23:27:12.998Z,1008.77
2023-02-23T23:33:35.966Z,1008.79
2023-02-23T23:39:56.018Z,1008.77
2023-02-23T23:46:19.006Z,1008.73
2023-02-23T23:52:38.987Z,1008.69
2023-02-23T23:59:01.998Z,1008.65
